createdAt,value
2018-01-06T00:00:00.794Z,73.50
2018-01-06T00:02:28.301Z,84.13
2018-01-06T00:04:56.648Z,82.47
2018-01-06T00:07:24.120Z,85.33
2018-01-06T00:09:51.583Z,83.80
2018-01-06T00:12:19.048Z,85.97
2018-01-06T00:14:46.558Z,84.60
2018-01-06T00:17:14.223Z,79.17
2018-01-06T00:19:41.748Z,74.20
2018-01-06T00:22:09.219Z,75.70
2018-01-06T00:24:37.499Z,85.50
2018-01-06T00:27:04.963Z,86.50
2018-01-06T00:29:32.465Z,81.17
2018-01-06T00:32:00.029Z,89.60
2018-01-06T00:34:27.507Z,105.00
2018-01-06T00:36:54.963Z,114.53
2018-01-06T00:39:22.507Z,108.43
2018-01-06T00:41:49.974Z,116.63
2018-01-06T00:44:17.728Z,104.40
2018-01-06T00:46:45.226Z,108.23
2018-01-06T00:49:12.700Z,114.17
2018-01-06T00:51:40.253Z,125.63
2018-01-06T00:54:08.438Z,116.93
2018-01-06T00:56:36.007Z,112.80
2018-01-06T00:59:03.525Z,110.87
2018-01-06T01:01:31.056Z,126.03
2018-01-06T01:03:58.519Z,104.53
2018-01-06T01:06:26.264Z,105.00
2018-01-06T01:08:53.777Z,103.67
2018-01-06T01:11:21.237Z,100.67
2018-01-06T01:13:48.768Z,104.07
2018-01-06T01:16:16.401Z,91.23
2018-01-06T01:18:43.891Z,92.73
2018-01-06T01:21:11.438Z,106.23
2018-01-06T01:23:38.957Z,96.73
2018-01-06T01:26:06.427Z,100.10
2018-01-06T01:28:34.062Z,86.90
2018-01-06T01:31:01.577Z,82.83
2018-01-06T01:33:29.086Z,83.80
2018-01-06T01:35:56.596Z,83.87
2018-01-06T01:38:24.048Z,84.07
2018-01-06T01:40:51.568Z,78.10
2018-01-06T01:43:19.043Z,78.00
2018-01-06T01:45:46.520Z,90.43
2018-01-06T01:48:13.990Z,92.87
2018-01-06T01:50:41.463Z,91.73
2018-01-06T01:53:08.928Z,96.20
2018-01-06T01:55:36.420Z,89.17
2018-01-06T01:58:03.887Z,79.90
2018-01-06T02:00:31.344Z,73.30
2018-01-06T02:02:58.853Z,76.73
2018-01-06T02:05:26.384Z,78.80
2018-01-06T02:07:53.871Z,62.57
2018-01-06T02:10:21.319Z,62.53
2018-01-06T02:12:49.007Z,56.83
2018-01-06T02:15:16.913Z,60.10
2018-01-06T02:17:44.437Z,54.83
2018-01-06T02:20:11.937Z,54.83
2018-01-06T02:22:39.390Z,49.17
2018-01-06T02:25:06.891Z,55.33
2018-01-06T02:27:34.347Z,60.80
2018-01-06T02:30:01.861Z,50.60
2018-01-06T02:32:29.315Z,55.37
2018-01-06T02:34:56.776Z,52.53
2018-01-06T02:37:24.264Z,53.77
2018-01-06T02:39:51.756Z,58.40
2018-01-06T02:42:19.220Z,56.40
2018-01-06T02:44:46.713Z,58.73
2018-01-06T02:47:14.196Z,59.40
2018-01-06T02:49:43.106Z,60.20
2018-01-06T02:52:10.566Z,58.10
2018-01-06T02:54:38.092Z,66.07
2018-01-06T02:57:05.552Z,56.87
2018-01-06T02:59:32.999Z,59.00
2018-01-06T03:02:00.471Z,56.40
2018-01-06T03:04:27.926Z,49.60
2018-01-06T03:06:55.421Z,49.90
2018-01-06T03:09:22.894Z,52.93
2018-01-06T03:11:50.541Z,45.40
2018-01-06T03:14:18.088Z,43.57
2018-01-06T03:16:45.540Z,42.20
2018-01-06T03:19:13.020Z,41.43
2018-01-06T03:21:40.518Z,45.60
2018-01-06T03:24:07.988Z,44.80
2018-01-06T03:26:35.648Z,39.83
2018-01-06T03:29:03.112Z,39.17
2018-01-06T03:31:30.615Z,38.40
2018-01-06T03:33:58.090Z,42.93
2018-01-06T03:36:25.709Z,38.83
2018-01-06T03:38:53.199Z,35.40
2018-01-06T03:41:20.668Z,38.57
2018-01-06T03:43:48.151Z,35.50
2018-01-06T03:46:15.742Z,32.30
2018-01-06T03:48:43.195Z,35.73
2018-01-06T03:51:10.857Z,35.00
2018-01-06T03:53:38.327Z,36.33
2018-01-06T03:56:06.687Z,35.27
2018-01-06T03:58:34.517Z,39.37
2018-01-06T04:01:01.976Z,41.17
2018-01-06T04:03:29.452Z,46.67
2018-01-06T04:05:56.914Z,51.57
2018-01-06T04:08:24.375Z,47.73
2018-01-06T04:10:51.886Z,52.40
2018-01-06T04:13:19.357Z,50.80
2018-01-06T04:15:46.806Z,48.63
2018-01-06T04:18:14.298Z,50.53
2018-01-06T04:20:41.760Z,48.00
2018-01-06T04:23:09.223Z,50.90
2018-01-06T04:25:36.690Z,49.40
2018-01-06T04:28:04.210Z,52.37
2018-01-06T04:30:31.691Z,57.40
2018-01-06T04:32:59.167Z,57.13
2018-01-06T04:35:26.641Z,59.70
2018-01-06T04:37:54.106Z,57.17
2018-01-06T04:40:21.581Z,60.87
2018-01-06T04:42:49.115Z,58.50
2018-01-06T04:45:16.696Z,54.70
2018-01-06T04:47:44.198Z,61.43
2018-01-06T04:50:11.668Z,59.93
2018-01-06T04:52:39.169Z,61.53
2018-01-06T04:55:06.631Z,71.13
2018-01-06T04:57:34.084Z,62.73
2018-01-06T05:00:01.542Z,55.00
2018-01-06T05:02:28.994Z,61.00
2018-01-06T05:04:56.455Z,64.37
2018-01-06T05:07:23.909Z,72.17
2018-01-06T05:09:51.389Z,68.57
2018-01-06T05:12:18.843Z,71.60
2018-01-06T05:14:46.311Z,65.40
2018-01-06T05:17:13.814Z,65.80
2018-01-06T05:19:41.311Z,65.53
2018-01-06T05:22:08.801Z,66.23
2018-01-06T05:24:36.257Z,60.53
2018-01-06T05:27:03.718Z,66.63
2018-01-06T05:29:31.191Z,65.10
2018-01-06T05:31:58.701Z,63.20
2018-01-06T05:34:26.164Z,66.23
2018-01-06T05:36:53.608Z,66.97
2018-01-06T05:39:21.088Z,62.60
2018-01-06T05:41:48.536Z,61.10
2018-01-06T05:44:16.181Z,64.43
2018-01-06T05:46:43.661Z,68.60
2018-01-06T05:49:11.116Z,78.03
2018-01-06T05:51:38.580Z,67.63
2018-01-06T05:54:06.051Z,62.17
2018-01-06T05:56:33.610Z,67.07
2018-01-06T05:59:01.107Z,64.73
2018-01-06T06:01:28.557Z,61.67
2018-01-06T06:03:56.023Z,55.70
2018-01-06T06:06:23.532Z,62.87
2018-01-06T06:08:50.985Z,71.87
2018-01-06T06:11:18.443Z,76.40
2018-01-06T06:13:45.910Z,75.93
2018-01-06T06:16:13.409Z,66.57
2018-01-06T06:18:40.870Z,75.13
2018-01-06T06:21:08.323Z,76.77
2018-01-06T06:23:35.780Z,91.27
2018-01-06T06:26:03.533Z,75.97
2018-01-06T06:28:31.000Z,69.30
2018-01-06T06:30:58.483Z,74.33
2018-01-06T06:33:25.939Z,69.40
2018-01-06T06:35:53.403Z,70.13
2018-01-06T06:38:20.900Z,76.30
2018-01-06T06:40:48.346Z,88.30
2018-01-06T06:43:15.803Z,93.33
2018-01-06T06:45:43.304Z,96.10
2018-01-06T06:48:10.768Z,87.43
2018-01-06T06:50:38.227Z,84.40
2018-01-06T06:53:05.841Z,85.77
2018-01-06T06:55:33.307Z,72.93
2018-01-06T06:58:00.772Z,73.00
2018-01-06T07:00:28.697Z,62.60
2018-01-06T07:02:56.163Z,54.60
2018-01-06T07:05:23.675Z,51.63
2018-01-06T07:07:51.124Z,47.50
2018-01-06T07:10:18.577Z,47.67
2018-01-06T07:12:46.466Z,52.57
2018-01-06T07:15:14.001Z,47.47
2018-01-06T07:17:41.536Z,50.47
2018-01-06T07:20:08.989Z,43.67
2018-01-06T07:22:36.565Z,43.67
2018-01-06T07:25:04.084Z,41.90
2018-01-06T07:27:31.535Z,39.73
2018-01-06T07:29:59.147Z,42.83
2018-01-06T07:32:26.622Z,43.53
2018-01-06T07:34:54.076Z,45.10
2018-01-06T07:37:21.537Z,47.20
2018-01-06T07:39:49.014Z,50.00
2018-01-06T07:42:16.455Z,43.00
2018-01-06T07:44:43.911Z,47.87
2018-01-06T07:47:11.496Z,49.43
2018-01-06T07:49:39.129Z,49.17
2018-01-06T07:52:06.581Z,45.20
2018-01-06T07:54:34.131Z,54.67
2018-01-06T07:57:01.576Z,48.17
2018-01-06T07:59:29.034Z,53.30
2018-01-06T08:01:56.492Z,55.10
2018-01-06T08:04:23.964Z,55.23
2018-01-06T08:06:51.502Z,54.13
2018-01-06T08:09:19.061Z,54.00
2018-01-06T08:11:46.508Z,59.97
2018-01-06T08:14:14.148Z,50.80
2018-01-06T08:16:41.604Z,52.60
2018-01-06T08:19:09.087Z,58.87
2018-01-06T08:21:36.552Z,57.83
2018-01-06T08:24:04.204Z,51.13
2018-01-06T08:26:31.611Z,58.70
2018-01-06T08:28:59.120Z,48.73
2018-01-06T08:31:26.570Z,49.90
2018-01-06T08:33:54.616Z,52.27
2018-01-06T08:36:22.113Z,54.90
2018-01-06T08:38:49.556Z,48.73
2018-01-06T08:41:17.020Z,52.70
2018-01-06T08:43:44.504Z,51.50
2018-01-06T08:46:11.975Z,59.40
2018-01-06T08:48:39.463Z,52.30
2018-01-06T08:51:06.924Z,55.90
2018-01-06T08:53:34.541Z,51.53
2018-01-06T08:56:02.004Z,63.07
2018-01-06T08:58:29.472Z,56.03
2018-01-06T09:00:58.157Z,56.67
2018-01-06T09:03:25.615Z,53.90
2018-01-06T09:05:53.109Z,50.40
2018-01-06T09:08:20.578Z,52.97
2018-01-06T09:10:48.286Z,52.57
2018-01-06T09:13:15.756Z,52.93
2018-01-06T09:15:43.212Z,44.63
2018-01-06T09:18:10.735Z,48.73
2018-01-06T09:20:38.215Z,46.63
2018-01-06T09:23:05.676Z,50.83
2018-01-06T09:25:33.193Z,53.63
2018-01-06T09:28:00.653Z,50.33
2018-01-06T09:30:28.135Z,45.93
2018-01-06T09:32:55.608Z,46.87
2018-01-06T09:35:23.076Z,47.90
2018-01-06T09:37:50.526Z,42.50
2018-01-06T09:40:18.308Z,46.83
2018-01-06T09:45:19.491Z,42.30
2018-01-06T09:47:46.999Z,43.33
2018-01-06T09:50:14.913Z,45.10
2018-01-06T09:52:42.948Z,45.57
2018-01-06T09:55:10.395Z,49.80
2018-01-06T09:57:37.864Z,41.93
2018-01-06T10:00:06.657Z,39.30
2018-01-06T10:02:34.107Z,46.87
2018-01-06T10:05:01.563Z,42.40
2018-01-06T10:07:29.024Z,44.40
2018-01-06T10:09:56.472Z,43.20
2018-01-06T10:12:25.069Z,43.57
2018-01-06T10:14:52.515Z,46.80
2018-01-06T10:17:19.987Z,42.10
2018-01-06T10:19:47.451Z,44.77
2018-01-06T10:22:14.966Z,40.47
2018-01-06T10:24:42.456Z,40.40
2018-01-06T10:27:09.923Z,36.90
2018-01-06T10:29:37.379Z,38.70
2018-01-06T10:32:04.877Z,34.10
2018-01-06T10:34:32.337Z,36.97
2018-01-06T10:36:59.820Z,32.50
2018-01-06T10:39:27.363Z,34.27
2018-01-06T10:41:54.854Z,30.97
2018-01-06T10:44:22.316Z,32.63
2018-01-06T10:46:49.791Z,32.67
2018-01-06T10:49:18.310Z,31.17
2018-01-06T10:51:45.768Z,29.13
2018-01-06T10:54:13.243Z,33.13
2018-01-06T10:56:40.761Z,30.00
2018-01-06T10:59:08.353Z,29.23
2018-01-06T11:01:41.453Z,31.53
2018-01-06T11:04:08.959Z,32.20
2018-01-06T11:06:36.424Z,32.30
2018-01-06T11:09:04.161Z,29.27
2018-01-06T11:11:31.644Z,32.23
2018-01-06T11:13:59.137Z,25.97
2018-01-06T11:16:26.688Z,29.57
2018-01-06T11:18:54.442Z,29.43
2018-01-06T11:21:21.924Z,30.83
2018-01-06T11:23:49.424Z,32.03
2018-01-06T11:26:16.904Z,28.73
2018-01-06T11:28:44.420Z,35.37
2018-01-06T11:31:11.894Z,33.10
2018-01-06T11:33:39.472Z,33.40
2018-01-06T11:36:07.031Z,35.00
2018-01-06T11:38:34.512Z,42.33
2018-01-06T11:41:02.028Z,34.93
2018-01-06T11:43:29.522Z,36.07
2018-01-06T11:45:56.996Z,35.90
2018-01-06T11:48:24.613Z,36.43
2018-01-06T11:50:52.104Z,41.07
2018-01-06T11:53:19.660Z,44.73
2018-01-06T11:55:47.158Z,42.77
2018-01-06T11:58:14.640Z,45.20
2018-01-06T12:00:42.144Z,47.53
2018-01-06T12:03:09.635Z,43.67
2018-01-06T12:05:37.104Z,40.10
2018-01-06T12:08:04.565Z,39.80
2018-01-06T12:10:32.060Z,39.90
2018-01-06T12:12:59.552Z,38.87
2018-01-06T12:15:27.084Z,40.63
2018-01-06T12:17:54.562Z,41.23
2018-01-06T12:20:22.069Z,43.63
2018-01-06T12:22:49.553Z,46.80
2018-01-06T12:25:17.112Z,44.13
2018-01-06T12:27:44.578Z,42.67
2018-01-06T12:30:12.046Z,43.43
2018-01-06T12:32:39.538Z,42.40
2018-01-06T12:35:06.991Z,44.40
2018-01-06T12:37:34.468Z,50.80
2018-01-06T12:40:01.953Z,49.70
2018-01-06T12:42:29.438Z,57.20
2018-01-06T12:44:56.907Z,55.67
2018-01-06T12:47:24.467Z,55.13
2018-01-06T12:49:51.988Z,65.33
2018-01-06T12:52:19.457Z,71.43
2018-01-06T12:54:46.948Z,68.03
2018-01-06T12:57:14.417Z,67.13
2018-01-06T12:59:41.920Z,70.70
2018-01-06T13:02:09.467Z,71.83
2018-01-06T13:04:36.937Z,74.17
2018-01-06T13:07:04.411Z,73.43
2018-01-06T13:09:31.894Z,73.67
2018-01-06T13:11:59.408Z,77.20
2018-01-06T13:14:26.959Z,69.47
2018-01-06T13:16:54.417Z,62.67
2018-01-06T13:19:21.877Z,65.77
2018-01-06T13:21:49.356Z,61.30
2018-01-06T13:24:16.823Z,58.30
2018-01-06T13:26:44.304Z,60.10
2018-01-06T13:29:11.794Z,62.03
2018-01-06T13:31:39.273Z,57.57
2018-01-06T13:34:06.748Z,62.23
2018-01-06T13:36:34.853Z,55.70
2018-01-06T13:39:02.361Z,50.47
2018-01-06T13:41:29.842Z,53.40
2018-01-06T13:43:57.318Z,58.60
2018-01-06T13:46:24.819Z,55.83
2018-01-06T13:48:52.333Z,56.33
2018-01-06T13:51:19.813Z,51.93
2018-01-06T13:53:47.302Z,52.77
2018-01-06T13:56:14.781Z,50.50
2018-01-06T13:58:42.329Z,57.80
2018-01-06T14:01:09.805Z,54.30
2018-01-06T14:03:37.281Z,55.60
2018-01-06T14:06:04.821Z,49.07
2018-01-06T14:08:32.337Z,48.53
2018-01-06T14:10:59.831Z,47.50
2018-01-06T14:13:27.312Z,48.80
2018-01-06T14:15:54.824Z,47.17
2018-01-06T14:18:22.299Z,53.10
2018-01-06T14:20:49.766Z,53.47
2018-01-06T14:23:17.256Z,51.20
2018-01-06T14:25:44.756Z,52.00
2018-01-06T14:28:13.104Z,59.57
2018-01-06T14:30:40.599Z,46.13
2018-01-06T14:33:08.067Z,51.77
2018-01-06T14:35:35.524Z,60.43
2018-01-06T14:38:03.049Z,55.27
2018-01-06T14:40:30.614Z,57.30
2018-01-06T14:42:58.289Z,62.90
2018-01-06T14:45:25.794Z,57.20
2018-01-06T14:47:53.259Z,58.97
2018-01-06T14:50:20.880Z,59.73
2018-01-06T14:52:48.381Z,63.10
2018-01-06T14:55:15.836Z,68.97
2018-01-06T14:57:43.336Z,68.20
2018-01-06T15:00:10.896Z,73.13
2018-01-06T15:02:38.379Z,71.20
2018-01-06T15:05:05.866Z,71.07
2018-01-06T15:07:33.384Z,76.30
2018-01-06T15:10:00.860Z,81.20
2018-01-06T15:12:28.337Z,79.50
2018-01-06T15:14:55.856Z,85.13
2018-01-06T15:17:23.437Z,91.40
2018-01-06T15:19:51.005Z,91.03
2018-01-06T15:22:18.469Z,86.40
2018-01-06T15:24:46.062Z,85.27
2018-01-06T15:27:13.548Z,91.73
2018-01-06T15:29:41.086Z,90.33
2018-01-06T15:32:08.584Z,87.67
2018-01-06T15:34:36.063Z,97.27
2018-01-06T15:37:03.546Z,97.60
2018-01-06T15:39:31.190Z,97.67
2018-01-06T15:41:58.682Z,102.50
2018-01-06T15:44:26.198Z,118.90
2018-01-06T15:46:53.723Z,104.87
2018-01-06T15:49:21.235Z,109.03
2018-01-06T15:51:48.742Z,112.83
2018-01-06T15:54:16.224Z,118.03
2018-01-06T15:56:43.701Z,109.87
2018-01-06T15:59:11.963Z,109.57
2018-01-06T16:01:39.460Z,103.67
2018-01-06T16:04:07.197Z,115.00
2018-01-06T16:06:34.749Z,109.13
2018-01-06T16:09:02.239Z,104.27
2018-01-06T16:11:29.724Z,113.93
2018-01-06T16:13:57.217Z,131.83
2018-01-06T16:16:24.744Z,116.33
2018-01-06T16:18:52.270Z,104.67
2018-01-06T16:21:19.854Z,114.97
2018-01-06T16:23:47.366Z,122.17
2018-01-06T16:26:14.843Z,131.40
2018-01-06T16:28:42.902Z,148.30
2018-01-06T16:31:10.356Z,136.60
2018-01-06T16:33:37.903Z,126.80
2018-01-06T16:36:05.866Z,133.40
2018-01-06T16:38:33.352Z,139.33
2018-01-06T16:41:01.101Z,136.83
2018-01-06T16:43:28.604Z,138.50
2018-01-06T16:45:56.144Z,124.87
2018-01-06T16:48:23.689Z,137.80
2018-01-06T16:50:51.168Z,129.23
2018-01-06T16:53:18.731Z,131.53
2018-01-06T16:55:46.996Z,115.70
2018-01-06T16:58:14.468Z,92.90
2018-01-06T17:00:41.958Z,104.70
2018-01-06T17:03:09.452Z,95.93
2018-01-06T17:05:36.952Z,102.43
2018-01-06T17:08:04.444Z,98.27
2018-01-06T17:10:32.085Z,103.43
2018-01-06T17:12:59.541Z,77.97
2018-01-06T17:15:27.019Z,89.40
2018-01-06T17:17:54.486Z,96.20
2018-01-06T17:20:22.013Z,98.83
2018-01-06T17:22:49.549Z,121.40
2018-01-06T17:25:17.050Z,110.40
2018-01-06T17:27:44.610Z,117.93
2018-01-06T17:36:10.526Z,126.77
2018-01-06T17:38:37.984Z,109.53
2018-01-06T17:41:05.521Z,119.40
2018-01-06T17:43:33.028Z,112.07
2018-01-06T17:46:00.511Z,103.30
2018-01-06T17:48:28.013Z,113.57
2018-01-06T17:50:55.973Z,117.03
2018-01-06T17:53:23.449Z,96.53
2018-01-06T17:55:50.957Z,102.13
2018-01-06T17:58:18.435Z,110.93
2018-01-06T18:00:45.958Z,106.70
2018-01-06T18:03:13.468Z,98.13
2018-01-06T18:05:40.946Z,102.13
2018-01-06T18:08:08.617Z,103.33
2018-01-06T18:10:36.138Z,102.13
2018-01-06T18:13:03.593Z,92.87
2018-01-06T18:15:31.061Z,107.07
2018-01-06T18:17:58.539Z,100.77
2018-01-06T18:20:26.032Z,99.47
2018-01-06T18:22:53.633Z,111.03
2018-01-06T18:25:21.126Z,114.77
2018-01-06T18:27:48.702Z,112.87
2018-01-06T18:30:16.194Z,104.83
2018-01-06T18:32:43.677Z,106.40
2018-01-06T18:35:11.165Z,109.13
2018-01-06T18:37:38.723Z,99.53
2018-01-06T18:40:06.210Z,114.60
2018-01-06T18:42:33.692Z,115.17
2018-01-06T18:45:01.173Z,104.13
2018-01-06T18:47:28.665Z,98.33
2018-01-06T18:49:56.655Z,107.90
2018-01-06T18:52:24.189Z,113.47
2018-01-06T18:54:51.694Z,98.67
2018-01-06T18:57:19.178Z,107.97
2018-01-06T18:59:46.664Z,101.67
2018-01-06T19:02:14.154Z,101.13
2018-01-06T19:04:41.704Z,110.13
2018-01-06T19:07:09.204Z,98.60
2018-01-06T19:09:36.986Z,101.50
2018-01-06T19:12:04.494Z,94.53
2018-01-06T19:14:32.053Z,99.17
2018-01-06T19:16:59.548Z,98.17
2018-01-06T19:19:27.028Z,114.97
2018-01-06T19:21:54.720Z,86.33
2018-01-06T19:24:22.248Z,83.40
2018-01-06T19:26:49.743Z,88.80
2018-01-06T19:29:17.329Z,100.47
2018-01-06T19:31:44.801Z,103.37
2018-01-06T19:34:12.447Z,97.00
2018-01-06T19:36:39.979Z,116.20
2018-01-06T19:39:07.460Z,118.50
2018-01-06T19:41:34.963Z,91.13
2018-01-06T19:44:02.445Z,85.03
2018-01-06T19:46:29.917Z,98.43
2018-01-06T19:48:57.431Z,103.13
2018-01-06T19:51:25.343Z,101.63
2018-01-06T19:53:52.907Z,95.50
2018-01-06T19:56:20.412Z,98.90
2018-01-06T19:58:47.901Z,101.13
2018-01-06T20:01:15.388Z,88.03
2018-01-06T20:03:42.958Z,99.10
2018-01-06T20:06:10.477Z,103.80
2018-01-06T20:08:38.030Z,89.80
2018-01-06T20:11:05.573Z,104.47
2018-01-06T20:13:33.045Z,96.07
2018-01-06T20:16:00.546Z,93.63
2018-01-06T20:18:28.063Z,88.73
2018-01-06T20:20:55.610Z,96.60
2018-01-06T20:23:23.175Z,89.80
2018-01-06T20:25:50.678Z,96.37
2018-01-06T20:28:18.224Z,93.67
2018-01-06T20:30:45.854Z,96.73
2018-01-06T20:33:13.385Z,101.77
2018-01-06T20:35:40.973Z,98.13
2018-01-06T20:38:08.583Z,94.03
2018-01-06T20:40:36.343Z,99.17
2018-01-06T20:43:04.005Z,107.10
2018-01-06T20:45:31.697Z,95.40
2018-01-06T20:47:59.223Z,113.67
2018-01-06T20:50:26.854Z,102.70
2018-01-06T20:52:54.529Z,97.63
2018-01-06T20:55:22.199Z,107.83
2018-01-06T20:57:49.981Z,112.00
2018-01-06T21:00:17.610Z,108.37
2018-01-06T21:02:45.234Z,107.80
2018-01-06T21:05:12.926Z,94.73
2018-01-06T21:07:40.542Z,95.20
2018-01-06T21:10:08.040Z,91.43
2018-01-06T21:12:36.316Z,98.03
2018-01-06T21:15:03.796Z,93.67
2018-01-06T21:17:31.287Z,94.70
2018-01-06T21:19:58.844Z,92.30
2018-01-06T21:22:26.337Z,94.93
2018-01-06T21:24:53.836Z,102.70
2018-01-06T21:27:21.369Z,77.10
2018-01-06T21:29:48.853Z,93.70
2018-01-06T21:32:17.334Z,92.37
2018-01-06T21:34:44.818Z,99.33
2018-01-06T21:37:12.389Z,77.73
2018-01-06T21:39:39.923Z,77.03
2018-01-06T21:42:07.511Z,56.83
2018-01-06T21:44:36.208Z,74.90
2018-01-06T21:47:03.677Z,74.30
2018-01-06T21:49:31.163Z,76.27
2018-01-06T21:51:58.839Z,72.90
2018-01-06T21:54:26.577Z,53.47
2018-01-06T21:56:54.044Z,45.13
2018-01-06T21:59:21.539Z,43.70
2018-01-06T22:01:49.029Z,45.00
2018-01-06T22:04:16.506Z,43.60
2018-01-06T22:06:43.999Z,42.70
2018-01-06T22:09:11.474Z,42.77
2018-01-06T22:11:38.968Z,44.53
2018-01-06T22:14:06.429Z,36.23
2018-01-06T22:16:33.896Z,38.20
2018-01-06T22:19:01.481Z,38.97
2018-01-06T22:21:28.997Z,39.57
2018-01-06T22:23:56.473Z,39.50
2018-01-06T22:26:23.960Z,40.50
2018-01-06T22:28:51.504Z,39.07
2018-01-06T22:31:18.992Z,39.10
2018-01-06T22:33:46.451Z,37.97
2018-01-06T22:36:13.996Z,36.37
2018-01-06T22:38:41.510Z,37.60
2018-01-06T22:41:08.969Z,33.03
2018-01-06T22:43:36.428Z,35.00
2018-01-06T22:46:03.914Z,35.90
2018-01-06T22:48:31.372Z,35.50
2018-01-06T22:50:58.924Z,34.93
2018-01-06T22:53:26.421Z,34.63
2018-01-06T22:55:53.901Z,35.30
2018-01-06T22:58:21.394Z,33.70
2018-01-06T23:00:49.797Z,35.87
2018-01-06T23:03:17.310Z,32.53
2018-01-06T23:05:44.777Z,32.77
2018-01-06T23:08:12.244Z,31.13
2018-01-06T23:10:39.711Z,33.33
2018-01-06T23:13:07.190Z,31.60
2018-01-06T23:15:34.645Z,32.90
2018-01-06T23:18:02.133Z,30.73
2018-01-06T23:20:29.591Z,29.67
2018-01-06T23:22:57.076Z,34.40
2018-01-06T23:25:24.577Z,32.93
2018-01-06T23:27:52.151Z,35.03
2018-01-06T23:30:19.629Z,34.63
2018-01-06T23:32:47.127Z,35.27
2018-01-06T23:35:14.613Z,34.37
2018-01-06T23:37:42.089Z,37.60
2018-01-06T23:40:09.584Z,40.90
2018-01-06T23:42:37.128Z,33.60
2018-01-06T23:45:04.602Z,49.63
2018-01-06T23:47:32.116Z,38.00
2018-01-06T23:49:59.596Z,41.50
2018-01-06T23:52:27.056Z,38.53
2018-01-06T23:54:54.531Z,44.03
2018-01-06T23:57:21.986Z,37.43
2018-01-06T23:59:49.452Z,37.20
